sensor_id;sensor_type;location;lat;lon;timestamp;pressure;altitude;pressure_sealevel;temperature;humidity
10462;BME280;5278;42.656;23.374;2023-02-03T00:00:45;94841.94;;;4.74;76.38
10462;BME280;5278;42.656;23.374;2023-02-03T00:03:12;94846.66;;;4.69;77.23
10462;BME280;5278;42.656;23.374;2023-02-03T00:05:40;94851.97;;;4.77;77.16
10462;BME280;5278;42.656;23.374;2023-02-03T00:08:08;94854.81;;;4.74;77.23
10462;BME280;5278;42.656;23.374;2023-02-03T00:10:36;94853.22;;;4.73;77.91
10462;BME280;5278;42.656;23.374;2023-02-03T00:13:05;94858.75;;;4.78;78.40
10462;BME280;5278;42.656;23.374;2023-02-03T00:15:32;94856.84;;;4.80;79.17
10462;BME280;5278;42.656;23.374;2023-02-03T00:17:59;94856.44;;;4.65;79.07
10462;BME280;5278;42.656;23.374;2023-02-03T00:20:27;94840.03;;;4.57;79.79
10462;BME280;5278;42.656;23.374;2023-02-03T00:23:02;94866.06;;;4.73;80.48
10462;BME280;5278;42.656;23.374;2023-02-03T00:25:29;94862.91;;;4.60;80.58
10462;BME280;5278;42.656;23.374;2023-02-03T00:27:56;94870.63;;;4.60;81.16
10462;BME280;5278;42.656;23.374;2023-02-03T00:30:23;94836.03;;;4.33;82.16
10462;BME280;5278;42.656;23.374;2023-02-03T00:32:50;94878.88;;;4.54;82.53
10462;BME280;5278;42.656;23.374;2023-02-03T00:35:16;94875.22;;;4.56;82.63
10462;BME280;5278;42.656;23.374;2023-02-03T00:37:49;94880.38;;;4.56;82.97
10462;BME280;5278;42.656;23.374;2023-02-03T00:40:19;94886.34;;;4.57;83.09
10462;BME280;5278;42.656;23.374;2023-02-03T00:42:47;94889.97;;;4.54;84.52
10462;BME280;5278;42.656;23.374;2023-02-03T00:45:15;94885.88;;;4.42;85.15
10462;BME280;5278;42.656;23.374;2023-02-03T00:47:42;94891.03;;;4.42;85.32
10462;BME280;5278;42.656;23.374;2023-02-03T00:50:10;94901.16;;;4.44;85.86
10462;BME280;5278;42.656;23.374;2023-02-03T00:52:37;94904.00;;;4.41;85.82
10462;BME280;5278;42.656;23.374;2023-02-03T00:55:06;94891.50;;;4.26;86.69
10462;BME280;5278;42.656;23.374;2023-02-03T00:57:35;94899.34;;;4.25;87.61
10462;BME280;5278;42.656;23.374;2023-02-03T01:00:03;94903.28;;;4.29;88.24
10462;BME280;5278;42.656;23.374;2023-02-03T01:02:31;94898.41;;;4.26;87.82
10462;BME280;5278;42.656;23.374;2023-02-03T01:04:58;94910.56;;;4.24;88.14
10462;BME280;5278;42.656;23.374;2023-02-03T01:07:25;94909.25;;;4.29;88.33
10462;BME280;5278;42.656;23.374;2023-02-03T01:09:52;94916.56;;;4.34;87.60
10462;BME280;5278;42.656;23.374;2023-02-03T01:12:20;94923.31;;;4.25;88.56
10462;BME280;5278;42.656;23.374;2023-02-03T01:14:48;94910.75;;;4.32;88.60
10462;BME280;5278;42.656;23.374;2023-02-03T01:17:15;94910.88;;;4.30;89.57
10462;BME280;5278;42.656;23.374;2023-02-03T01:19:42;94911.28;;;4.26;90.07
10462;BME280;5278;42.656;23.374;2023-02-03T01:22:09;94907.75;;;4.27;90.02
10462;BME280;5278;42.656;23.374;2023-02-03T01:24:36;94911.69;;;4.31;90.20
10462;BME280;5278;42.656;23.374;2023-02-03T01:27:04;94899.16;;;4.38;89.98
10462;BME280;5278;42.656;23.374;2023-02-03T01:29:31;94901.56;;;4.39;89.29
10462;BME280;5278;42.656;23.374;2023-02-03T01:32:00;94891.97;;;4.41;88.42
10462;BME280;5278;42.656;23.374;2023-02-03T01:34:27;94897.94;;;4.42;87.93
10462;BME280;5278;42.656;23.374;2023-02-03T01:36:54;94900.22;;;4.45;86.78
10462;BME280;5278;42.656;23.374;2023-02-03T01:39:21;94907.56;;;4.49;86.19
10462;BME280;5278;42.656;23.374;2023-02-03T01:41:48;94839.66;;;4.12;84.77
10462;BME280;5278;42.656;23.374;2023-02-03T01:44:34;94920.38;;;4.40;84.38
10462;BME280;5278;42.656;23.374;2023-02-03T01:47:07;94913.72;;;4.27;84.28
10462;BME280;5278;42.656;23.374;2023-02-03T01:49:37;94918.44;;;4.22;84.11
10462;BME280;5278;42.656;23.374;2023-02-03T01:52:05;94930.59;;;4.20;84.29
10462;BME280;5278;42.656;23.374;2023-02-03T01:54:36;94916.63;;;4.13;84.53
10462;BME280;5278;42.656;23.374;2023-02-03T01:57:09;94915.94;;;4.11;84.87
10462;BME280;5278;42.656;23.374;2023-02-03T01:59:38;94947.72;;;4.10;85.21
10462;BME280;5278;42.656;23.374;2023-02-03T02:02:07;94918.06;;;4.06;85.31
10462;BME280;5278;42.656;23.374;2023-02-03T02:04:40;94927.00;;;4.02;85.01
10462;BME280;5278;42.656;23.374;2023-02-03T02:07:09;94920.22;;;4.01;85.79
10462;BME280;5278;42.656;23.374;2023-02-03T02:09:36;94934.19;;;4.08;85.02
10462;BME280;5278;42.656;23.374;2023-02-03T02:12:03;94925.66;;;4.08;84.79
10462;BME280;5278;42.656;23.374;2023-02-03T02:14:30;94926.06;;;4.03;84.82
10462;BME280;5278;42.656;23.374;2023-02-03T02:17:03;94925.34;;;4.01;85.00
10462;BME280;5278;42.656;23.374;2023-02-03T02:22:34;94920.72;;;3.95;84.13
10462;BME280;5278;42.656;23.374;2023-02-03T02:25:37;94934.97;;;4.09;84.39
10462;BME280;5278;42.656;23.374;2023-02-03T02:28:38;94931.91;;;4.15;83.64
10462;BME280;5278;42.656;23.374;2023-02-03T02:34:20;94943.78;;;4.06;83.08
10462;BME280;5278;42.656;23.374;2023-02-03T02:36:58;94944.03;;;4.03;83.18
10462;BME280;5278;42.656;23.374;2023-02-03T02:39:32;94943.84;;;3.95;84.05
10462;BME280;5278;42.656;23.374;2023-02-03T02:42:05;94949.25;;;3.92;83.89
10462;BME280;5278;42.656;23.374;2023-02-03T02:44:37;94950.13;;;3.81;84.73
10462;BME280;5278;42.656;23.374;2023-02-03T02:47:14;94947.56;;;3.81;84.47
10462;BME280;5278;42.656;23.374;2023-02-03T02:49:49;94936.28;;;3.73;84.71
10462;BME280;5278;42.656;23.374;2023-02-03T02:52:20;94935.75;;;3.79;84.53
10462;BME280;5278;42.656;23.374;2023-02-03T02:54:51;94934.00;;;3.79;83.90
10462;BME280;5278;42.656;23.374;2023-02-03T02:57:20;94926.06;;;3.82;84.06
10462;BME280;5278;42.656;23.374;2023-02-03T02:59:50;94933.56;;;3.74;83.41
10462;BME280;5278;42.656;23.374;2023-02-03T03:02:17;94932.19;;;3.70;83.25
10462;BME280;5278;42.656;23.374;2023-02-03T03:04:47;94931.53;;;3.68;83.47
10462;BME280;5278;42.656;23.374;2023-02-03T03:07:17;94897.91;;;3.39;83.35
10462;BME280;5278;42.656;23.374;2023-02-03T03:09:50;94942.34;;;3.72;83.10
10462;BME280;5278;42.656;23.374;2023-02-03T03:12:21;94948.31;;;3.72;82.64
10462;BME280;5278;42.656;23.374;2023-02-03T03:14:54;94952.06;;;3.68;82.25
10462;BME280;5278;42.656;23.374;2023-02-03T03:17:26;94951.38;;;3.66;82.56
10462;BME280;5278;42.656;23.374;2023-02-03T03:19:56;94961.09;;;3.63;81.79
10462;BME280;5278;42.656;23.374;2023-02-03T03:22:29;94963.66;;;3.63;82.11
10462;BME280;5278;42.656;23.374;2023-02-03T03:25:02;94965.25;;;3.64;81.57
10462;BME280;5278;42.656;23.374;2023-02-03T03:27:35;94961.09;;;3.63;81.16
10462;BME280;5278;42.656;23.374;2023-02-03T03:30:07;94922.25;;;3.24;80.74
10462;BME280;5278;42.656;23.374;2023-02-03T03:32:38;94968.72;;;3.53;79.71
10462;BME280;5278;42.656;23.374;2023-02-03T03:35:07;94962.31;;;3.47;79.69
10462;BME280;5278;42.656;23.374;2023-02-03T03:37:36;94965.81;;;3.46;79.96
10462;BME280;5278;42.656;23.374;2023-02-03T03:40:09;94955.13;;;3.30;79.82
10462;BME280;5278;42.656;23.374;2023-02-03T03:42:40;94974.13;;;3.39;79.83
10462;BME280;5278;42.656;23.374;2023-02-03T03:45:12;94990.13;;;3.42;79.74
10462;BME280;5278;42.656;23.374;2023-02-03T03:47:46;94993.13;;;3.47;79.29
10462;BME280;5278;42.656;23.374;2023-02-03T03:50:18;94994.16;;;3.56;78.97
10462;BME280;5278;42.656;23.374;2023-02-03T03:52:49;94989.72;;;3.58;78.53
10462;BME280;5278;42.656;23.374;2023-02-03T03:55:18;94987.00;;;3.60;78.86
10462;BME280;5278;42.656;23.374;2023-02-03T03:57:54;95002.84;;;3.65;78.62
10462;BME280;5278;42.656;23.374;2023-02-03T04:00:24;95002.94;;;3.74;78.25
10462;BME280;5278;42.656;23.374;2023-02-03T04:02:54;95005.00;;;3.80;77.73
10462;BME280;5278;42.656;23.374;2023-02-03T04:05:25;95012.16;;;3.77;78.48
10462;BME280;5278;42.656;23.374;2023-02-03T04:07:52;94997.94;;;3.73;77.74
10462;BME280;5278;42.656;23.374;2023-02-03T04:10:24;95017.19;;;3.78;78.16
10462;BME280;5278;42.656;23.374;2023-02-03T04:12:52;95012.72;;;3.80;77.96
10462;BME280;5278;42.656;23.374;2023-02-03T04:15:19;95011.69;;;3.83;77.94
10462;BME280;5278;42.656;23.374;2023-02-03T04:17:46;95010.03;;;3.82;77.77
10462;BME280;5278;42.656;23.374;2023-02-03T04:20:13;95024.75;;;3.80;78.78
10462;BME280;5278;42.656;23.374;2023-02-03T04:22:42;95030.38;;;3.74;79.42
10462;BME280;5278;42.656;23.374;2023-02-03T04:25:09;95030.78;;;3.90;78.39
10462;BME280;5278;42.656;23.374;2023-02-03T04:27:38;95030.59;;;3.82;78.92
10462;BME280;5278;42.656;23.374;2023-02-03T04:30:06;95039.84;;;3.73;79.56
10462;BME280;5278;42.656;23.374;2023-02-03T04:32:33;95043.34;;;3.72;79.57
10462;BME280;5278;42.656;23.374;2023-02-03T04:35:01;95051.25;;;3.80;79.11
10462;BME280;5278;42.656;23.374;2023-02-03T04:37:28;95050.78;;;3.86;78.85
10462;BME280;5278;42.656;23.374;2023-02-03T04:39:57;95038.47;;;3.90;78.71
10462;BME280;5278;42.656;23.374;2023-02-03T04:42:24;95054.38;;;3.84;78.73
10462;BME280;5278;42.656;23.374;2023-02-03T04:44:51;95061.19;;;3.74;78.75
10462;BME280;5278;42.656;23.374;2023-02-03T04:47:19;95064.13;;;3.69;79.55
10462;BME280;5278;42.656;23.374;2023-02-03T04:49:47;95068.91;;;3.74;79.96
10462;BME280;5278;42.656;23.374;2023-02-03T04:52:14;95065.19;;;3.78;79.25
10462;BME280;5278;42.656;23.374;2023-02-03T04:54:41;95069.63;;;3.76;79.59
10462;BME280;5278;42.656;23.374;2023-02-03T04:57:10;95073.81;;;3.77;79.33
10462;BME280;5278;42.656;23.374;2023-02-03T04:59:37;95071.81;;;3.80;78.72
10462;BME280;5278;42.656;23.374;2023-02-03T05:02:04;95066.44;;;3.83;79.05
10462;BME280;5278;42.656;23.374;2023-02-03T05:04:32;95072.81;;;3.89;78.90
10462;BME280;5278;42.656;23.374;2023-02-03T05:06:59;95077.03;;;3.90;78.93
10462;BME280;5278;42.656;23.374;2023-02-03T05:09:26;95078.94;;;3.88;78.90
10462;BME280;5278;42.656;23.374;2023-02-03T05:11:53;95077.03;;;3.90;78.38
10462;BME280;5278;42.656;23.374;2023-02-03T05:14:22;95087.69;;;3.85;78.34
10462;BME280;5278;42.656;23.374;2023-02-03T05:16:49;95085.22;;;3.84;79.13
10462;BME280;5278;42.656;23.374;2023-02-03T05:19:15;95085.09;;;3.85;78.74
10462;BME280;5278;42.656;23.374;2023-02-03T05:21:42;95088.25;;;3.89;77.85
10462;BME280;5278;42.656;23.374;2023-02-03T05:24:10;94975.75;;;3.08;78.17
10462;BME280;5278;42.656;23.374;2023-02-03T05:26:37;95095.72;;;3.92;78.23
10462;BME280;5278;42.656;23.374;2023-02-03T05:29:04;95101.59;;;3.83;78.67
10462;BME280;5278;42.656;23.374;2023-02-03T05:31:32;95096.50;;;3.72;79.32
10462;BME280;5278;42.656;23.374;2023-02-03T05:33:59;95103.47;;;3.81;79.43
10462;BME280;5278;42.656;23.374;2023-02-03T05:36:26;95094.47;;;3.86;79.29
10462;BME280;5278;42.656;23.374;2023-02-03T05:38:53;95094.19;;;3.89;78.94
10462;BME280;5278;42.656;23.374;2023-02-03T05:41:20;95093.16;;;3.92;78.57
10462;BME280;5278;42.656;23.374;2023-02-03T05:44:04;95104.38;;;3.91;78.08
10462;BME280;5278;42.656;23.374;2023-02-03T05:46:33;95098.78;;;3.86;77.98
10462;BME280;5278;42.656;23.374;2023-02-03T05:49:00;95106.97;;;3.80;78.15
10462;BME280;5278;42.656;23.374;2023-02-03T05:51:27;95112.34;;;3.77;78.67
10462;BME280;5278;42.656;23.374;2023-02-03T05:53:53;95112.56;;;3.74;78.57
10462;BME280;5278;42.656;23.374;2023-02-03T05:56:20;95113.28;;;3.76;78.84
10462;BME280;5278;42.656;23.374;2023-02-03T05:58:48;95114.81;;;3.78;79.03
10462;BME280;5278;42.656;23.374;2023-02-03T06:01:17;95110.25;;;3.82;78.31
10462;BME280;5278;42.656;23.374;2023-02-03T06:03:46;95110.47;;;3.79;78.99
10462;BME280;5278;42.656;23.374;2023-02-03T06:06:14;95110.47;;;3.79;78.54
10462;BME280;5278;42.656;23.374;2023-02-03T06:08:42;95102.75;;;3.79;78.97
10462;BME280;5278;42.656;23.374;2023-02-03T06:11:10;95116.19;;;4.14;78.87
10462;BME280;5278;42.656;23.374;2023-02-03T06:13:37;95099.03;;;4.36;76.81
10462;BME280;5278;42.656;23.374;2023-02-03T06:16:04;95113.97;;;4.42;75.85
10462;BME280;5278;42.656;23.374;2023-02-03T06:18:31;95114.47;;;4.36;74.97
10462;BME280;5278;42.656;23.374;2023-02-03T06:21:00;95119.22;;;4.61;74.03
10462;BME280;5278;42.656;23.374;2023-02-03T06:23:26;95119.47;;;5.09;71.85
10462;BME280;5278;42.656;23.374;2023-02-03T06:25:53;95124.84;;;5.67;69.51
10462;BME280;5278;42.656;23.374;2023-02-03T06:28:20;95117.75;;;6.47;64.68
10462;BME280;5278;42.656;23.374;2023-02-03T06:30:49;95130.00;;;7.38;61.10
10462;BME280;5278;42.656;23.374;2023-02-03T06:33:19;95086.69;;;7.95;56.63
10462;BME280;5278;42.656;23.374;2023-02-03T06:35:46;95130.78;;;8.74;53.75
10462;BME280;5278;42.656;23.374;2023-02-03T06:38:15;95131.25;;;9.21;51.75
10462;BME280;5278;42.656;23.374;2023-02-03T06:40:44;95130.94;;;9.24;50.79
10462;BME280;5278;42.656;23.374;2023-02-03T06:43:12;95129.75;;;9.44;48.93
10462;BME280;5278;42.656;23.374;2023-02-03T06:45:39;95108.34;;;9.92;47.25
10462;BME280;5278;42.656;23.374;2023-02-03T06:48:06;95130.44;;;10.70;45.13
10462;BME280;5278;42.656;23.374;2023-02-03T06:50:33;95120.78;;;11.11;43.24
10462;BME280;5278;42.656;23.374;2023-02-03T06:53:00;95122.13;;;11.62;42.44
10462;BME280;5278;42.656;23.374;2023-02-03T06:55:28;95119.47;;;12.18;41.02
10462;BME280;5278;42.656;23.374;2023-02-03T06:57:55;95127.50;;;12.31;40.38
10462;BME280;5278;42.656;23.374;2023-02-03T07:00:22;95112.09;;;12.21;39.91
10462;BME280;5278;42.656;23.374;2023-02-03T07:02:52;95104.41;;;12.28;39.92
10462;BME280;5278;42.656;23.374;2023-02-03T07:05:20;95114.75;;;11.82;40.65
10462;BME280;5278;42.656;23.374;2023-02-03T07:07:47;95115.47;;;11.60;41.44
10462;BME280;5278;42.656;23.374;2023-02-03T07:10:15;95119.38;;;11.56;41.31
10462;BME280;5278;42.656;23.374;2023-02-03T07:12:43;95096.91;;;11.63;41.25
10462;BME280;5278;42.656;23.374;2023-02-03T07:15:11;95105.13;;;11.44;41.47
10462;BME280;5278;42.656;23.374;2023-02-03T07:17:38;95097.72;;;11.63;41.25
10462;BME280;5278;42.656;23.374;2023-02-03T07:20:07;95100.31;;;11.63;40.98
10462;BME280;5278;42.656;23.374;2023-02-03T07:22:33;95106.22;;;11.96;40.35
10462;BME280;5278;42.656;23.374;2023-02-03T07:25:00;95097.47;;;12.43;39.14
10462;BME280;5278;42.656;23.374;2023-02-03T07:27:27;95104.66;;;12.64;38.76
10462;BME280;5278;42.656;23.374;2023-02-03T07:29:55;95109.19;;;12.70;38.24
10462;BME280;5278;42.656;23.374;2023-02-03T07:32:22;95119.13;;;12.89;37.60
10462;BME280;5278;42.656;23.374;2023-02-03T07:34:49;95115.44;;;13.94;77.29
10462;BME280;5278;42.656;23.374;2023-02-03T07:37:16;95105.56;;;15.73;53.63
10462;BME280;5278;42.656;23.374;2023-02-03T07:39:43;95095.59;;;17.09;39.29
10462;BME280;5278;42.656;23.374;2023-02-03T07:42:10;95109.91;;;18.24;33.56
10462;BME280;5278;42.656;23.374;2023-02-03T07:44:37;95117.25;;;18.91;32.35
10462;BME280;5278;42.656;23.374;2023-02-03T07:47:05;95114.28;;;19.12;30.69
10462;BME280;5278;42.656;23.374;2023-02-03T07:49:32;95104.38;;;19.75;29.95
10462;BME280;5278;42.656;23.374;2023-02-03T07:51:59;95113.88;;;20.49;27.58
10462;BME280;5278;42.656;23.374;2023-02-03T07:54:26;95098.66;;;21.04;26.87
10462;BME280;5278;42.656;23.374;2023-02-03T07:56:54;95094.59;;;21.67;25.93
10462;BME280;5278;42.656;23.374;2023-02-03T07:59:21;95086.06;;;21.18;24.44
10462;BME280;5278;42.656;23.374;2023-02-03T08:01:48;95110.34;;;19.46;25.86
10462;BME280;5278;42.656;23.374;2023-02-03T08:04:17;95108.53;;;18.59;26.96
10462;BME280;5278;42.656;23.374;2023-02-03T08:06:45;95121.44;;;17.39;28.43
10462;BME280;5278;42.656;23.374;2023-02-03T08:09:11;95112.16;;;16.90;29.46
10462;BME280;5278;42.656;23.374;2023-02-03T08:11:38;95115.53;;;15.97;30.58
10462;BME280;5278;42.656;23.374;2023-02-03T08:14:05;95123.34;;;16.38;30.17
10462;BME280;5278;42.656;23.374;2023-02-03T08:16:32;95126.13;;;16.30;30.27
10462;BME280;5278;42.656;23.374;2023-02-03T08:18:59;95131.59;;;16.28;30.40
10462;BME280;5278;42.656;23.374;2023-02-03T08:21:29;95129.38;;;16.32;30.54
10462;BME280;5278;42.656;23.374;2023-02-03T08:23:56;95135.88;;;16.49;30.59
10462;BME280;5278;42.656;23.374;2023-02-03T08:26:23;95143.69;;;17.10;29.88
10462;BME280;5278;42.656;23.374;2023-02-03T08:28:50;95133.59;;;17.13;29.35
10462;BME280;5278;42.656;23.374;2023-02-03T08:31:17;95135.59;;;17.57;28.66
10462;BME280;5278;42.656;23.374;2023-02-03T08:33:44;95134.44;;;18.18;27.89
10462;BME280;5278;42.656;23.374;2023-02-03T08:36:12;95139.00;;;18.35;27.58
10462;BME280;5278;42.656;23.374;2023-02-03T08:38:40;95144.22;;;18.55;27.03
10462;BME280;5278;42.656;23.374;2023-02-03T08:41:08;95144.31;;;19.05;26.87
10462;BME280;5278;42.656;23.374;2023-02-03T08:43:35;95136.78;;;19.08;26.47
10462;BME280;5278;42.656;23.374;2023-02-03T08:46:03;95144.78;;;19.51;25.52
10462;BME280;5278;42.656;23.374;2023-02-03T08:48:30;95146.13;;;19.78;25.68
10462;BME280;5278;42.656;23.374;2023-02-03T08:50:57;95150.44;;;19.73;25.37
10462;BME280;5278;42.656;23.374;2023-02-03T08:53:24;95152.31;;;20.09;25.04
10462;BME280;5278;42.656;23.374;2023-02-03T08:55:53;95144.69;;;20.01;25.02
10462;BME280;5278;42.656;23.374;2023-02-03T08:58:20;95156.72;;;20.15;24.79
10462;BME280;5278;42.656;23.374;2023-02-03T09:00:47;95162.44;;;19.69;25.34
10462;BME280;5278;42.656;23.374;2023-02-03T09:03:17;95156.72;;;18.53;26.76
10462;BME280;5278;42.656;23.374;2023-02-03T09:05:44;95172.56;;;16.97;28.22
10462;BME280;5278;42.656;23.374;2023-02-03T09:08:11;95168.16;;;16.43;29.86
10462;BME280;5278;42.656;23.374;2023-02-03T09:10:38;95169.94;;;16.84;29.55
10462;BME280;5278;42.656;23.374;2023-02-03T09:13:06;95159.41;;;15.82;30.67
10462;BME280;5278;42.656;23.374;2023-02-03T09:15:33;95167.84;;;14.58;32.43
10462;BME280;5278;42.656;23.374;2023-02-03T09:18:00;95156.47;;;14.00;33.33
10462;BME280;5278;42.656;23.374;2023-02-03T09:20:27;95165.78;;;14.75;32.97
10462;BME280;5278;42.656;23.374;2023-02-03T09:22:57;95160.13;;;15.14;32.53
10462;BME280;5278;42.656;23.374;2023-02-03T09:25:24;95152.78;;;15.86;31.64
10462;BME280;5278;42.656;23.374;2023-02-03T09:27:51;95140.97;;;16.64;30.73
10462;BME280;5278;42.656;23.374;2023-02-03T09:30:20;95144.84;;;16.68;30.04
10462;BME280;5278;42.656;23.374;2023-02-03T09:32:46;95147.72;;;17.12;29.53
10462;BME280;5278;42.656;23.374;2023-02-03T09:35:18;95138.63;;;17.35;28.88
10462;BME280;5278;42.656;23.374;2023-02-03T09:37:45;95108.13;;;16.81;29.21
10462;BME280;5278;42.656;23.374;2023-02-03T09:40:18;95133.94;;;16.71;29.76
10462;BME280;5278;42.656;23.374;2023-02-03T09:43:11;95146.69;;;16.81;29.45
10462;BME280;5278;42.656;23.374;2023-02-03T09:45:42;95130.94;;;17.20;29.24
10462;BME280;5278;42.656;23.374;2023-02-03T09:48:12;95136.81;;;17.61;28.73
10462;BME280;5278;42.656;23.374;2023-02-03T09:50:43;95132.53;;;18.38;27.33
10462;BME280;5278;42.656;23.374;2023-02-03T09:53:25;95131.72;;;18.82;26.68
10462;BME280;5278;42.656;23.374;2023-02-03T09:55:54;95149.19;;;18.70;26.38
10462;BME280;5278;42.656;23.374;2023-02-03T09:58:20;95128.03;;;18.00;26.92
10462;BME280;5278;42.656;23.374;2023-02-03T10:00:50;95130.75;;;17.61;27.11
10462;BME280;5278;42.656;23.374;2023-02-03T10:03:26;95147.34;;;17.61;26.87
10462;BME280;5278;42.656;23.374;2023-02-03T10:06:08;95119.06;;;18.15;26.35
10462;BME280;5278;42.656;23.374;2023-02-03T10:08:47;95121.44;;;17.78;27.04
10462;BME280;5278;42.656;23.374;2023-02-03T10:11:22;95121.66;;;16.91;28.06
10462;BME280;5278;42.656;23.374;2023-02-03T10:14:00;95124.47;;;16.16;29.42
10462;BME280;5278;42.656;23.374;2023-02-03T10:16:50;95121.66;;;16.78;28.64
10462;BME280;5278;42.656;23.374;2023-02-03T10:19:26;95131.44;;;16.50;27.93
10462;BME280;5278;42.656;23.374;2023-02-03T10:21:57;95132.63;;;15.86;28.52
10462;BME280;5278;42.656;23.374;2023-02-03T10:24:39;95137.13;;;15.37;29.62
10462;BME280;5278;42.656;23.374;2023-02-03T10:27:09;95138.16;;;14.15;31.04
10462;BME280;5278;42.656;23.374;2023-02-03T10:29:42;95129.03;;;13.46;32.69
10462;BME280;5278;42.656;23.374;2023-02-03T10:32:11;95125.50;;;13.83;33.35
10462;BME280;5278;42.656;23.374;2023-02-03T10:34:38;95138.41;;;13.84;32.28
10462;BME280;5278;42.656;23.374;2023-02-03T10:37:13;95110.63;;;13.10;33.05
10462;BME280;5278;42.656;23.374;2023-02-03T10:39:44;95133.06;;;11.97;34.03
10462;BME280;5278;42.656;23.374;2023-02-03T10:42:13;95132.78;;;11.37;35.40
10462;BME280;5278;42.656;23.374;2023-02-03T10:44:43;95129.09;;;10.66;36.25
10462;BME280;5278;42.656;23.374;2023-02-03T10:47:23;95121.13;;;10.19;37.14
10462;BME280;5278;42.656;23.374;2023-02-03T10:49:53;95129.72;;;9.78;38.80
10462;BME280;5278;42.656;23.374;2023-02-03T10:52:27;95112.56;;;9.09;40.24
10462;BME280;5278;42.656;23.374;2023-02-03T10:54:55;95132.97;;;8.86;41.62
10462;BME280;5278;42.656;23.374;2023-02-03T10:57:24;95142.31;;;8.26;42.63
10462;BME280;5278;42.656;23.374;2023-02-03T11:00:04;95158.44;;;8.20;42.68
10462;BME280;5278;42.656;23.374;2023-02-03T11:02:33;95158.19;;;7.96;43.31
10462;BME280;5278;42.656;23.374;2023-02-03T11:05:17;95153.00;;;7.96;43.54
10462;BME280;5278;42.656;23.374;2023-02-03T11:07:48;95150.97;;;7.62;41.47
10462;BME280;5278;42.656;23.374;2023-02-03T11:10:30;95173.63;;;7.51;41.06
10462;BME280;5278;42.656;23.374;2023-02-03T11:13:12;95170.25;;;7.50;41.48
10462;BME280;5278;42.656;23.374;2023-02-03T11:15:52;95162.53;;;7.68;41.31
10462;BME280;5278;42.656;23.374;2023-02-03T11:21:15;95134.91;;;9.78;38.12
10462;BME280;5278;42.656;23.374;2023-02-03T11:23:46;95133.03;;;10.70;36.21
10462;BME280;5278;42.656;23.374;2023-02-03T11:26:18;95135.13;;;10.59;35.80
10462;BME280;5278;42.656;23.374;2023-02-03T11:28:49;95136.06;;;10.33;35.53
10462;BME280;5278;42.656;23.374;2023-02-03T11:31:19;95124.69;;;10.18;34.82
10462;BME280;5278;42.656;23.374;2023-02-03T11:33:53;95122.94;;;10.59;34.38
10462;BME280;5278;42.656;23.374;2023-02-03T11:36:24;95112.56;;;10.59;34.13
10462;BME280;5278;42.656;23.374;2023-02-03T11:38:51;95107.34;;;10.51;34.62
10462;BME280;5278;42.656;23.374;2023-02-03T11:41:36;95094.97;;;11.57;33.85
10462;BME280;5278;42.656;23.374;2023-02-03T11:44:10;95081.94;;;12.72;32.24
10462;BME280;5278;42.656;23.374;2023-02-03T11:46:38;95079.38;;;14.04;29.91
10462;BME280;5278;42.656;23.374;2023-02-03T11:49:18;95075.19;;;14.10;29.56
10462;BME280;5278;42.656;23.374;2023-02-03T11:51:55;95075.78;;;13.91;30.14
10462;BME280;5278;42.656;23.374;2023-02-03T11:54:30;95048.44;;;13.72;29.94
10462;BME280;5278;42.656;23.374;2023-02-03T11:57:14;95075.13;;;13.38;30.31
10462;BME280;5278;42.656;23.374;2023-02-03T11:59:59;95049.78;;;12.57;31.21
10462;BME280;5278;42.656;23.374;2023-02-03T12:02:50;95079.72;;;12.16;30.87
10462;BME280;5278;42.656;23.374;2023-02-03T12:05:45;95082.31;;;11.54;31.34
10462;BME280;5278;42.656;23.374;2023-02-03T12:08:40;95082.63;;;11.98;31.01
10462;BME280;5278;42.656;23.374;2023-02-03T12:11:18;95094.31;;;12.02;31.21
10462;BME280;5278;42.656;23.374;2023-02-03T12:14:07;95084.72;;;12.02;30.69
10462;BME280;5278;42.656;23.374;2023-02-03T12:17:11;95088.56;;;12.15;29.67
10462;BME280;5278;42.656;23.374;2023-02-03T12:19:52;95084.03;;;12.54;29.22
10462;BME280;5278;42.656;23.374;2023-02-03T12:22:29;95089.09;;;11.63;30.22
10462;BME280;5278;42.656;23.374;2023-02-03T12:25:08;95084.63;;;10.21;31.96
10462;BME280;5278;42.656;23.374;2023-02-03T12:27:49;95101.66;;;9.73;33.05
10462;BME280;5278;42.656;23.374;2023-02-03T12:30:26;95099.25;;;9.04;33.54
10462;BME280;5278;42.656;23.374;2023-02-03T12:32:56;95096.16;;;9.00;33.74
10462;BME280;5278;42.656;23.374;2023-02-03T12:35:28;95085.81;;;9.42;33.14
10462;BME280;5278;42.656;23.374;2023-02-03T12:38:02;95086.00;;;9.99;32.86
10462;BME280;5278;42.656;23.374;2023-02-03T12:40:34;95074.22;;;10.37;32.83
10462;BME280;5278;42.656;23.374;2023-02-03T12:43:17;95080.56;;;10.67;32.08
10462;BME280;5278;42.656;23.374;2023-02-03T12:45:53;95076.28;;;10.09;32.68
10462;BME280;5278;42.656;23.374;2023-02-03T12:48:22;95065.41;;;9.47;34.22
10462;BME280;5278;42.656;23.374;2023-02-03T12:50:53;95074.25;;;8.95;34.94
10462;BME280;5278;42.656;23.374;2023-02-03T12:53:27;95074.03;;;8.62;36.31
10462;BME280;5278;42.656;23.374;2023-02-03T12:55:58;95028.34;;;8.18;36.66
10462;BME280;5278;42.656;23.374;2023-02-03T12:58:31;95061.94;;;8.45;37.04
10462;BME280;5278;42.656;23.374;2023-02-03T13:01:03;95053.31;;;8.37;37.56
10462;BME280;5278;42.656;23.374;2023-02-03T13:03:35;95048.69;;;8.48;37.25
10462;BME280;5278;42.656;23.374;2023-02-03T13:06:07;95051.19;;;8.58;37.41
10462;BME280;5278;42.656;23.374;2023-02-03T13:08:40;95056.72;;;8.63;37.70
10462;BME280;5278;42.656;23.374;2023-02-03T13:11:19;95057.06;;;8.68;37.63
10462;BME280;5278;42.656;23.374;2023-02-03T13:13:53;95035.53;;;8.24;38.46
10462;BME280;5278;42.656;23.374;2023-02-03T13:16:25;95064.25;;;8.31;39.43
10462;BME280;5278;42.656;23.374;2023-02-03T13:18:57;95069.34;;;8.05;40.62
10462;BME280;5278;42.656;23.374;2023-02-03T13:21:26;95065.13;;;8.04;40.75
10462;BME280;5278;42.656;23.374;2023-02-03T13:23:58;95068.88;;;7.74;41.66
10462;BME280;5278;42.656;23.374;2023-02-03T13:26:48;95074.88;;;7.47;42.24
10462;BME280;5278;42.656;23.374;2023-02-03T13:29:47;94966.72;;;6.80;42.13
10462;BME280;5278;42.656;23.374;2023-02-03T13:32:36;95065.66;;;7.08;43.18
10462;BME280;5278;42.656;23.374;2023-02-03T13:35:23;95073.50;;;6.88;44.04